createdAt,value
2022-09-25T00:00:13.722Z,5.50
2022-09-25T00:02:44.710Z,4.00
2022-09-25T00:05:15.276Z,8.00
2022-09-25T00:07:45.763Z,7.00
2022-09-25T00:10:16.153Z,6.25
2022-09-25T00:12:46.543Z,7.00
2022-09-25T00:15:17.959Z,7.50
2022-09-25T00:17:48.878Z,9.75
2022-09-25T00:20:20.309Z,8.50
2022-09-25T00:22:51.134Z,7.25
2022-09-25T00:25:24.523Z,8.50
2022-09-25T00:27:56.294Z,8.25
2022-09-25T00:30:26.695Z,7.75
2022-09-25T00:32:57.106Z,9.00
2022-09-25T00:35:27.392Z,8.25
2022-09-25T00:37:58.202Z,8.00
2022-09-25T00:40:28.617Z,8.50
2022-09-25T00:42:59.016Z,8.00
2022-09-25T00:45:29.428Z,7.50
2022-09-25T00:48:05.274Z,8.75
2022-09-25T00:50:56.890Z,7.50
2022-09-25T00:53:32.901Z,8.25
2022-09-25T00:56:05.358Z,7.00
2022-09-25T00:58:38.186Z,7.00
2022-09-25T01:01:09.724Z,7.25
2022-09-25T01:03:42.087Z,7.00
2022-09-25T01:06:14.375Z,5.25
2022-09-25T01:08:46.813Z,7.50
2022-09-25T01:11:17.550Z,6.00
2022-09-25T01:13:47.723Z,8.25
2022-09-25T01:16:27.092Z,7.00
2022-09-25T01:19:32.406Z,5.25
2022-09-25T01:22:14.866Z,8.00
2022-09-25T01:25:21.028Z,7.75
2022-09-25T01:30:43.874Z,9.25
2022-09-25T01:33:38.050Z,10.00
2022-09-25T01:36:29.544Z,10.00
2022-09-25T01:39:22.809Z,8.00
2022-09-25T01:41:59.648Z,8.00
2022-09-25T01:44:33.028Z,3.00
2022-09-25T01:47:06.284Z,10.00
2022-09-25T01:49:48.528Z,8.00
2022-09-25T01:52:27.414Z,9.00
2022-09-25T01:55:00.715Z,8.75
2022-09-25T01:57:51.798Z,8.75
2022-09-25T02:00:24.012Z,8.00
2022-09-25T02:02:57.589Z,10.50
2022-09-25T02:05:36.466Z,9.75
2022-09-25T02:08:09.899Z,10.00
2022-09-25T02:10:45.918Z,8.25
2022-09-25T02:13:18.712Z,8.25
2022-09-25T02:15:54.645Z,11.50
2022-09-25T02:18:26.205Z,8.75
2022-09-25T02:21:10.772Z,4.75
2022-09-25T02:24:02.023Z,9.25
2022-09-25T02:26:35.317Z,8.75
2022-09-25T02:29:06.190Z,8.75
2022-09-25T02:32:03.264Z,8.25
2022-09-25T02:34:34.267Z,10.00
2022-09-25T02:37:12.219Z,10.50
2022-09-25T02:39:45.493Z,4.75
2022-09-25T02:42:35.203Z,10.00
2022-09-25T02:45:35.646Z,11.25
2022-09-25T02:48:38.530Z,11.00
2022-09-25T02:51:18.634Z,9.25
2022-09-25T02:53:54.630Z,11.50
2022-09-25T02:56:51.875Z,10.25
2022-09-25T02:59:25.112Z,12.00
2022-09-25T03:01:59.102Z,9.00
2022-09-25T03:04:31.737Z,9.00
2022-09-25T03:07:03.041Z,9.50
2022-09-25T03:09:36.399Z,9.00
2022-09-25T03:12:06.775Z,12.00
2022-09-25T03:14:37.815Z,9.50
2022-09-25T03:17:09.802Z,13.00
2022-09-25T03:19:40.720Z,11.75
2022-09-25T03:22:10.906Z,12.75
2022-09-25T03:24:42.786Z,8.00
2022-09-25T03:27:13.114Z,15.50
2022-09-25T03:29:47.005Z,13.50
2022-09-25T03:32:19.294Z,13.00
2022-09-25T03:34:49.580Z,15.00
2022-09-25T03:37:19.898Z,14.00
2022-09-25T03:39:50.186Z,12.50
2022-09-25T03:42:24.064Z,27.75
2022-09-25T03:44:54.749Z,22.00
2022-09-25T03:47:25.671Z,17.00
2022-09-25T03:49:55.843Z,14.50
2022-09-25T03:52:26.379Z,16.00
2022-09-25T03:54:56.683Z,17.75
2022-09-25T03:57:38.411Z,12.00
2022-09-25T04:00:09.140Z,12.75
2022-09-25T04:02:40.094Z,13.00
2022-09-25T04:05:13.666Z,12.25
2022-09-25T04:07:43.820Z,16.25
2022-09-25T04:10:14.467Z,16.25
2022-09-25T04:12:44.770Z,13.00
2022-09-25T04:15:15.057Z,12.00
2022-09-25T04:17:45.810Z,12.25
2022-09-25T04:20:16.411Z,12.00
2022-09-25T04:22:46.640Z,11.25
2022-09-25T04:25:24.333Z,14.25
2022-09-25T04:27:53.904Z,11.75
2022-09-25T04:30:24.846Z,8.00
2022-09-25T04:32:55.387Z,13.75
2022-09-25T04:35:25.932Z,14.25
2022-09-25T04:37:56.572Z,14.25
2022-09-25T04:40:28.141Z,8.25
2022-09-25T04:43:03.241Z,15.25
2022-09-25T04:45:36.026Z,13.75
2022-09-25T04:48:06.948Z,12.75
2022-09-25T04:50:37.397Z,13.75
2022-09-25T04:53:08.418Z,14.00
2022-09-25T04:55:39.673Z,15.00
2022-09-25T04:58:14.809Z,15.25
2022-09-25T05:00:48.677Z,13.25
2022-09-25T05:03:22.347Z,15.00
2022-09-25T05:06:07.933Z,13.50
2022-09-25T05:08:37.768Z,14.75
2022-09-25T05:11:08.776Z,14.00
2022-09-25T05:13:39.303Z,16.00
2022-09-25T05:16:11.450Z,15.25
2022-09-25T05:21:32.291Z,14.00
2022-09-25T05:24:30.235Z,15.75
2022-09-25T05:27:13.502Z,12.50
2022-09-25T05:29:46.988Z,14.00
2022-09-25T05:32:17.302Z,15.25
2022-09-25T05:34:48.050Z,10.00
2022-09-25T05:37:18.487Z,14.75
2022-09-25T05:39:49.088Z,11.75
2022-09-25T05:42:19.280Z,10.50
2022-09-25T05:44:51.131Z,10.00
2022-09-25T05:47:21.434Z,9.75
2022-09-25T05:49:51.674Z,10.50
2022-09-25T05:52:22.285Z,12.00
2022-09-25T05:54:53.431Z,11.20
2022-09-25T05:57:24.252Z,10.80
2022-09-25T05:59:55.958Z,10.80
2022-09-25T06:02:26.736Z,10.20
2022-09-25T06:04:58.765Z,12.40
2022-09-25T06:07:29.156Z,11.80
2022-09-25T06:09:59.951Z,12.20
2022-09-25T06:12:31.113Z,10.20
2022-09-25T06:15:03.355Z,11.00
2022-09-25T06:17:34.120Z,11.00
2022-09-25T06:20:05.085Z,12.00
2022-09-25T06:22:39.966Z,12.60
2022-09-25T06:25:10.498Z,11.00
2022-09-25T06:27:41.031Z,10.00
2022-09-25T06:30:13.212Z,12.40
2022-09-25T06:33:07.793Z,10.80
2022-09-25T06:35:53.657Z,11.00
2022-09-25T06:38:29.414Z,15.40
2022-09-25T06:43:59.891Z,8.40
2022-09-25T06:46:30.782Z,9.20
2022-09-25T06:49:04.404Z,10.00
2022-09-25T06:51:37.447Z,10.60
2022-09-25T06:54:09.378Z,10.20
2022-09-25T06:56:39.808Z,8.00
2022-09-25T06:59:10.466Z,9.40
2022-09-25T07:01:48.041Z,12.20
2022-09-25T07:04:18.556Z,12.20
2022-09-25T07:06:49.041Z,6.60
2022-09-25T07:09:19.517Z,8.80
2022-09-25T07:11:51.360Z,8.80
2022-09-25T07:14:23.952Z,8.20
2022-09-25T07:16:54.283Z,8.00
2022-09-25T07:19:27.765Z,9.40
2022-09-25T07:21:56.848Z,6.80
2022-09-25T07:24:30.174Z,7.40
2022-09-25T07:27:05.064Z,5.60
2022-09-25T07:29:46.861Z,7.60
2022-09-25T07:32:17.740Z,8.20
2022-09-25T07:34:51.109Z,9.00
2022-09-25T08:13:06.830Z,7.60
2022-09-25T08:15:42.401Z,9.00
2022-09-25T08:18:12.248Z,9.60
2022-09-25T08:20:52.130Z,8.60
2022-09-25T08:23:27.199Z,5.00
2022-09-25T08:26:07.241Z,4.60
2022-09-25T08:28:39.317Z,6.00
2022-09-25T08:32:01.225Z,5.00
2022-09-25T08:34:28.517Z,4.40
2022-09-25T08:36:39.574Z,7.00
2022-09-25T08:39:14.654Z,7.00
2022-09-25T08:41:56.535Z,5.00
2022-09-25T08:44:37.898Z,6.20
2022-09-25T08:47:23.526Z,10.00
2022-09-25T08:50:14.909Z,7.80
2022-09-25T08:52:53.750Z,6.80
2022-09-25T08:55:29.411Z,5.60
2022-09-25T08:58:06.003Z,8.40
2022-09-25T09:00:47.376Z,9.60
2022-09-25T09:03:25.582Z,6.80
2022-09-25T09:06:04.377Z,6.20
2022-09-25T09:08:38.586Z,4.00
2022-09-25T09:11:20.664Z,6.40
2022-09-25T09:14:09.166Z,6.00
2022-09-25T09:17:01.862Z,9.20
2022-09-25T09:19:32.611Z,5.40
2022-09-25T09:22:14.026Z,7.00
2022-09-25T09:25:10.221Z,7.40
2022-09-25T09:27:53.653Z,8.80
2022-09-25T09:30:38.729Z,6.00
2022-09-25T09:36:23.521Z,5.00
2022-09-25T09:39:02.154Z,8.40
2022-09-25T09:41:55.120Z,7.00
2022-09-25T09:44:46.475Z,7.20
2022-09-25T09:47:22.395Z,6.40
2022-09-25T09:50:05.769Z,1.00
2022-09-25T09:52:47.559Z,7.00
2022-09-25T09:55:27.082Z,6.00
2022-09-25T09:58:02.445Z,8.00
2022-09-25T10:00:33.982Z,5.20
2022-09-25T10:03:07.395Z,5.00
2022-09-25T10:05:53.930Z,7.00
2022-09-25T10:08:26.605Z,7.80
2022-09-25T10:11:00.611Z,7.40
2022-09-25T10:13:41.478Z,8.40
2022-09-25T10:16:26.190Z,7.00
2022-09-25T10:19:17.707Z,5.00
2022-09-25T10:22:02.426Z,6.20
2022-09-25T10:24:51.485Z,7.60
2022-09-25T10:27:44.617Z,5.40
2022-09-25T10:30:22.890Z,5.60
2022-09-25T10:33:06.927Z,6.20
2022-09-25T10:35:46.921Z,5.00
2022-09-25T10:38:23.418Z,5.00
2022-09-25T10:41:17.985Z,5.40
2022-09-25T10:43:58.163Z,4.80
2022-09-25T10:46:36.212Z,4.00
2022-09-25T10:49:15.765Z,9.80
2022-09-25T10:51:57.425Z,49.00
2022-09-25T10:54:31.495Z,41.00
2022-09-25T10:57:32.729Z,8.00
2022-09-25T11:00:06.130Z,9.00
2022-09-25T11:02:42.339Z,6.00
2022-09-25T11:05:20.911Z,8.20
2022-09-25T11:07:55.519Z,6.20
2022-09-25T11:10:31.518Z,7.80
2022-09-25T11:13:05.575Z,6.40
2022-09-25T11:15:53.398Z,5.60
2022-09-25T11:18:45.215Z,9.40
2022-09-25T11:21:30.594Z,6.60
2022-09-25T11:24:21.753Z,7.60
2022-09-25T11:27:19.954Z,8.20
2022-09-25T11:30:14.829Z,7.20
2022-09-25T11:33:23.201Z,8.00
2022-09-25T11:35:54.677Z,10.80
2022-09-25T11:38:50.288Z,11.60
2022-09-25T11:41:32.300Z,11.00
2022-09-25T11:44:20.479Z,8.40
2022-09-25T11:50:03.860Z,9.80
2022-09-25T11:52:41.803Z,10.00
2022-09-25T11:55:17.780Z,9.20
2022-09-25T11:58:22.436Z,7.80
2022-09-25T12:08:13.573Z,9.80
2022-09-25T12:11:23.714Z,9.80
2022-09-25T12:13:59.914Z,11.20
2022-09-25T12:16:46.086Z,9.60
2022-09-25T12:22:45.329Z,8.60
2022-09-25T12:25:27.851Z,10.60
2022-09-25T12:28:12.822Z,9.40
2022-09-25T12:31:06.784Z,11.80
2022-09-25T12:33:57.092Z,6.60
2022-09-25T12:40:05.737Z,9.00
2022-09-25T12:43:06.994Z,9.00
2022-09-25T12:46:03.079Z,8.60
2022-09-25T12:48:53.161Z,6.80
2022-09-25T12:54:49.014Z,9.40
2022-09-25T12:57:23.180Z,10.40
2022-09-25T13:00:22.516Z,8.60
2022-09-25T13:03:17.045Z,7.60
2022-09-25T13:05:54.423Z,8.60
2022-09-25T13:08:46.056Z,9.00
2022-09-25T13:11:39.545Z,7.60
2022-09-25T13:17:23.098Z,9.00
2022-09-25T13:20:29.046Z,9.80
2022-09-25T13:23:08.129Z,10.00
2022-09-25T13:26:02.632Z,8.60
2022-09-25T13:29:06.326Z,7.20
2022-09-25T13:31:39.574Z,7.20
2022-09-25T13:34:19.809Z,5.00
2022-09-25T13:36:59.812Z,9.20
2022-09-25T13:39:43.177Z,6.00
2022-09-25T13:42:23.889Z,31.20
2022-09-25T13:45:05.978Z,35.20
2022-09-25T13:47:46.212Z,7.40
2022-09-25T13:50:31.176Z,9.80
2022-09-25T13:53:04.340Z,8.00
2022-09-25T13:55:34.653Z,6.20
2022-09-25T13:58:05.062Z,7.40
2022-09-25T14:00:41.142Z,6.60
2022-09-25T14:03:39.853Z,7.00
2022-09-25T14:06:30.573Z,5.00
2022-09-25T14:09:28.421Z,7.20
2022-09-25T14:12:12.211Z,7.60
2022-09-25T14:14:51.998Z,7.00
2022-09-25T14:17:25.671Z,12.60
2022-09-25T14:19:57.761Z,6.40
2022-09-25T14:22:45.887Z,6.00
2022-09-25T14:25:31.082Z,9.00
2022-09-25T14:28:10.413Z,7.40
2022-09-25T14:31:06.384Z,4.80
2022-09-25T14:33:49.183Z,8.20
2022-09-25T14:36:31.248Z,6.80
2022-09-25T14:39:10.545Z,7.80
2022-09-25T14:42:09.708Z,7.80
2022-09-25T14:44:47.874Z,7.20
2022-09-25T14:47:22.319Z,9.40
2022-09-25T14:49:54.486Z,7.20
2022-09-25T14:52:31.382Z,8.40
2022-09-25T14:55:07.375Z,8.80
2022-09-25T14:57:42.757Z,8.20
2022-09-25T15:00:40.786Z,8.80
2022-09-25T15:03:17.153Z,8.80
2022-09-25T15:05:49.317Z,9.80
2022-09-25T15:08:38.523Z,8.20
2022-09-25T15:11:22.709Z,9.80
2022-09-25T15:13:54.349Z,9.00
2022-09-25T15:16:36.875Z,8.20
2022-09-25T15:19:19.932Z,8.80
2022-09-25T15:21:56.793Z,7.80
2022-09-25T15:24:36.962Z,20.75
2022-09-25T15:27:13.548Z,11.00
2022-09-25T15:29:47.402Z,10.00
2022-09-25T15:32:30.258Z,9.20
2022-09-25T15:36:40.805Z,7.00
2022-09-25T15:41:36.543Z,10.00
2022-09-25T15:44:22.017Z,10.50
2022-09-25T15:56:16.071Z,16.00
2022-09-25T15:58:50.948Z,10.50
2022-09-25T16:01:27.227Z,17.25
2022-09-25T16:04:08.896Z,13.25
2022-09-25T16:06:42.960Z,12.50
2022-09-25T16:09:40.057Z,13.25
2022-09-25T16:12:35.939Z,14.50
2022-09-25T16:15:27.573Z,17.00
2022-09-25T16:18:05.460Z,16.25
2022-09-25T16:20:35.100Z,13.50
2022-09-25T16:23:07.888Z,16.75
2022-09-25T16:25:41.248Z,15.00
2022-09-25T16:28:41.442Z,15.25
2022-09-25T16:31:14.756Z,16.50
2022-09-25T16:33:55.748Z,21.00
2022-09-25T16:36:28.296Z,20.00
2022-09-25T16:39:33.369Z,24.00
2022-09-25T16:42:41.417Z,20.25
2022-09-25T16:45:19.755Z,20.00
2022-09-25T16:47:53.866Z,20.00
2022-09-25T16:50:32.203Z,20.50
2022-09-25T16:53:02.581Z,21.25
2022-09-25T16:55:33.662Z,16.25
2022-09-25T17:00:51.339Z,22.25
2022-09-25T17:03:23.117Z,11.00
2022-09-25T17:05:59.520Z,9.50
2022-09-25T17:08:30.015Z,9.00
2022-09-25T17:11:06.032Z,11.00
2022-09-25T17:13:38.069Z,10.25
2022-09-25T17:16:10.372Z,11.25
2022-09-25T17:18:41.370Z,10.00
2022-09-25T17:21:15.152Z,10.25
2022-09-25T17:23:45.876Z,12.75
2022-09-25T17:26:25.182Z,11.00
2022-09-25T17:28:55.594Z,8.75
2022-09-25T17:31:26.060Z,11.75
2022-09-25T17:33:59.197Z,10.00
2022-09-25T17:36:29.622Z,10.00
2022-09-25T17:39:00.478Z,8.25
2022-09-25T17:41:44.220Z,10.00
2022-09-25T17:44:20.177Z,9.50
2022-09-25T17:46:51.806Z,11.00
2022-09-25T17:49:31.291Z,9.75
2022-09-25T17:52:16.530Z,9.75
2022-09-25T17:54:54.233Z,12.00
2022-09-25T17:57:44.176Z,12.00
2022-09-25T18:00:16.585Z,11.00
2022-09-25T18:02:47.454Z,9.25
2022-09-25T18:08:37.075Z,10.25
2022-09-25T18:11:31.801Z,14.25
2022-09-25T18:14:02.593Z,10.25
2022-09-25T18:16:33.557Z,10.50
2022-09-25T18:19:04.199Z,13.50
2022-09-25T18:21:34.806Z,13.00
2022-09-25T18:24:06.861Z,11.75
2022-09-25T18:26:38.522Z,9.00
2022-09-25T18:29:09.992Z,9.25
2022-09-25T18:31:44.971Z,10.50
2022-09-25T18:34:16.477Z,13.75
2022-09-25T18:36:47.191Z,11.25
2022-09-25T18:39:20.294Z,11.50
2022-09-25T18:41:49.625Z,10.50
2022-09-25T18:44:19.951Z,12.00
2022-09-25T18:46:56.784Z,12.75
2022-09-25T18:49:27.119Z,10.50
2022-09-25T18:51:59.051Z,10.75
2022-09-25T18:54:29.435Z,10.50
2022-09-25T18:56:59.963Z,9.50
2022-09-25T18:59:30.384Z,10.00
2022-09-25T19:02:01.329Z,9.00
2022-09-25T19:04:32.139Z,11.00
2022-09-25T19:07:02.460Z,12.00
2022-09-25T19:09:33.605Z,9.75
2022-09-25T19:12:04.167Z,11.40
2022-09-25T19:14:35.864Z,11.25
2022-09-25T19:17:06.196Z,9.25
2022-09-25T19:19:37.817Z,9.75
2022-09-25T19:22:11.055Z,9.50
2022-09-25T19:24:41.583Z,7.50
2022-09-25T19:27:14.169Z,11.25
2022-09-25T19:29:45.907Z,7.75
2022-09-25T19:32:28.047Z,8.75
2022-09-25T19:35:13.165Z,10.00
2022-09-25T19:37:43.799Z,10.00
2022-09-25T19:40:14.375Z,7.75
2022-09-25T19:42:48.577Z,5.40
2022-09-25T19:45:19.068Z,6.75
2022-09-25T19:47:49.355Z,8.75
2022-09-25T19:50:19.618Z,11.00
2022-09-25T19:52:54.340Z,7.50
2022-09-25T19:55:25.081Z,7.00
2022-09-25T19:57:59.973Z,9.50
2022-09-25T20:00:33.698Z,11.00
2022-09-25T20:03:06.894Z,11.00
2022-09-25T20:05:39.119Z,7.50
2022-09-25T20:08:09.667Z,8.50
2022-09-25T20:10:40.296Z,10.75
2022-09-25T20:13:11.033Z,8.50
2022-09-25T20:15:41.895Z,5.25
2022-09-25T20:18:12.329Z,9.00
2022-09-25T20:20:43.546Z,8.25
2022-09-25T20:23:14.259Z,11.00
2022-09-25T20:25:45.161Z,8.25
2022-09-25T20:28:15.547Z,11.00
2022-09-25T20:30:45.953Z,8.00
2022-09-25T20:33:16.354Z,9.00
2022-09-25T20:35:46.704Z,11.00
2022-09-25T20:38:17.169Z,8.75
2022-09-25T20:40:47.753Z,9.00
2022-09-25T20:43:20.894Z,9.50
2022-09-25T20:45:59.964Z,10.00
2022-09-25T20:48:32.011Z,11.00
2022-09-25T20:51:07.731Z,11.00
2022-09-25T20:53:39.811Z,7.00
2022-09-25T20:56:15.215Z,7.25
2022-09-25T20:58:49.563Z,7.75
2022-09-25T21:01:23.637Z,8.50
2022-09-25T21:03:54.919Z,9.00
2022-09-25T21:06:27.663Z,8.00
2022-09-25T21:09:00.682Z,6.25
2022-09-25T21:11:32.752Z,7.75
2022-09-25T21:14:04.122Z,11.00
2022-09-25T21:16:35.128Z,7.25
2022-09-25T21:19:05.765Z,9.00
2022-09-25T21:21:36.272Z,9.00
2022-09-25T21:24:07.661Z,9.00
2022-09-25T21:26:38.199Z,8.25
2022-09-25T21:29:09.051Z,7.75
2022-09-25T21:31:46.613Z,8.75
2022-09-25T21:34:15.132Z,9.00
2022-09-25T21:36:47.504Z,7.00
2022-09-25T21:39:20.749Z,9.00
2022-09-25T21:41:50.431Z,8.25
2022-09-25T21:44:21.020Z,8.25
2022-09-25T21:46:51.456Z,11.00
2022-09-25T21:49:22.969Z,8.00
2022-09-25T21:51:54.077Z,8.50
2022-09-25T21:54:24.394Z,9.75
2022-09-25T21:56:54.727Z,9.75
2022-09-25T21:59:25.098Z,10.75
2022-09-25T22:01:56.270Z,8.50
2022-09-25T22:04:26.590Z,14.25
2022-09-25T22:06:56.708Z,10.50
2022-09-25T22:09:27.048Z,30.00
2022-09-25T22:11:58.455Z,33.75
2022-09-25T22:14:28.696Z,24.75
2022-09-25T22:16:59.856Z,28.75
2022-09-25T22:19:30.887Z,30.50
2022-09-25T22:22:01.259Z,28.25
2022-09-25T22:24:31.906Z,26.25
2022-09-25T22:27:02.827Z,30.25
2022-09-25T22:29:35.745Z,26.50
2022-09-25T22:32:06.606Z,32.00
2022-09-25T22:34:37.087Z,31.50
2022-09-25T22:37:07.398Z,33.50
2022-09-25T22:39:37.811Z,29.50
2022-09-25T22:42:08.218Z,27.25
2022-09-25T22:44:39.035Z,26.00
2022-09-25T22:47:09.483Z,23.00
2022-09-25T22:49:40.968Z,22.75
2022-09-25T22:52:11.589Z,22.25
2022-09-25T22:54:41.848Z,27.00
2022-09-25T22:57:12.853Z,24.50
2022-09-25T22:59:43.282Z,22.25
2022-09-25T23:02:13.389Z,31.75
2022-09-25T23:04:44.752Z,32.00
2022-09-25T23:07:15.530Z,11.75
2022-09-25T23:09:46.140Z,34.00
2022-09-25T23:12:16.630Z,34.50
2022-09-25T23:14:47.112Z,33.50
2022-09-25T23:17:17.450Z,32.00
2022-09-25T23:19:47.692Z,33.00
2022-09-25T23:22:18.133Z,33.25
2022-09-25T23:24:48.490Z,32.00
2022-09-25T23:27:18.796Z,34.25
2022-09-25T23:29:49.129Z,36.50
2022-09-25T23:32:40.020Z,38.75
2022-09-25T23:35:10.561Z,39.50
2022-09-25T23:37:41.562Z,38.00
2022-09-25T23:40:15.514Z,37.00
2022-09-25T23:42:43.913Z,38.00
2022-09-25T23:45:14.572Z,38.00
2022-09-25T23:47:46.249Z,35.00
2022-09-25T23:50:16.673Z,34.00
2022-09-25T23:52:47.031Z,30.25
2022-09-25T23:55:17.952Z,32.00
2022-09-25T23:57:48.465Z,28.50
